Estación de Tierras Nobles

Ultimos registro cada 15 minutos 26
Estación Fecha / Hora Temperatura Humedad Lluvia Velocidad Dirección Radiación Presion
26 Tierras Nobles 05-05-2026 06:30 9,3 52 0 0 26 0 1012,6
25 Tierras Nobles 05-05-2026 06:15 9,3 52 0 0 26 0 1012,7
24 Tierras Nobles 05-05-2026 06:00 9,3 52 0 0 26 0 1012,8
23 Tierras Nobles 05-05-2026 05:45 9,3 52 0 0 26 0 1012,8
22 Tierras Nobles 05-05-2026 05:30 9,3 52 0 0 26 0 1012,9
21 Tierras Nobles 05-05-2026 05:15 9,3 52 0 0 26 0 1013
20 Tierras Nobles 05-05-2026 05:00 9,3 52 0 0 26 0 1013
19 Tierras Nobles 05-05-2026 04:45 9,3 52 0,2 0 26 0 1012,7
18 Tierras Nobles 05-05-2026 04:30 9,2 52 0 0 26 0 1012,9
17 Tierras Nobles 05-05-2026 04:15 9,3 52 0,4 0 26 0 1013,1
16 Tierras Nobles 05-05-2026 04:00 9,2 52 0,2 0 26 0 1013
15 Tierras Nobles 05-05-2026 03:45 9,3 52 0 0 26 0 1012,8
14 Tierras Nobles 05-05-2026 03:15 9,2 52 0 0 26 0 1012,7
13 Tierras Nobles 05-05-2026 03:00 9,2 52 0,2 0 26 0 1013,1
12 Tierras Nobles 05-05-2026 02:45 9,2 52 0 0 26 0 1012,6
11 Tierras Nobles 05-05-2026 02:30 9,3 52 0 0 26 0 1012,5
10 Tierras Nobles 05-05-2026 02:15 9,3 52 0 0 26 0 1012,8
9 Tierras Nobles 05-05-2026 02:00 9,4 52 0 0 26 0 1013,1
8 Tierras Nobles 05-05-2026 01:45 9,4 52 0 0 26 0 1012,9
7 Tierras Nobles 05-05-2026 01:30 9,4 52 0,2 0 26 0 1013
6 Tierras Nobles 05-05-2026 01:15 9,5 52 0 0 26 0 1013,2
5 Tierras Nobles 05-05-2026 01:00 9,5 52 0 0 26 0 1013,1
4 Tierras Nobles 05-05-2026 00:45 9,5 52 0 0 26 0 1012,9
3 Tierras Nobles 05-05-2026 00:30 9,6 52 0 0 26 0 1013
2 Tierras Nobles 05-05-2026 00:15 9,4 53 0 0 26 0 1013
1 Tierras Nobles 05-05-2026 00:00 9,4 53 0 0 26 0 1013,1